Time;durP1;ratioP1;P1;durP2;ratioP2;P2;SDS_P1;SDS_P2;PMS_P1;PMS_P2;Temp;Humidity;BMP_temperature;BMP_pressure;BME280_temperature;BME280_humidity;BME280_pressure;Samples;Min_cycle;Max_cycle;Signal;HPM_P1;HPM_P2
2021/01/08 04:01:22;;;;;;;3.45;1.47;;;;;;;3.82;100.00;99823.23;1646519;82;21640;-66
2021/01/08 04:03:50;;;;;;;5.28;2.47;;;;;;;3.78;100.00;99822.40;1661211;84;21137;-65
2021/01/08 04:06:19;;;;;;;5.75;3.20;;;;;;;3.76;100.00;99832.06;1662315;85;21232;-71
2021/01/08 04:08:47;;;;;;;4.35;2.22;;;;;;;3.73;100.00;99840.90;1663734;85;21232;-67
2021/01/08 04:11:16;;;;;;;7.22;3.05;;;;;;;3.71;100.00;99838.12;1661953;85;21201;-69
2021/01/08 04:13:44;;;;;;;4.92;1.77;;;;;;;3.69;100.00;99834.91;1663996;84;21145;-67
2021/01/08 04:16:14;;;;;;;8.93;3.42;;;;;;;3.65;100.00;99833.10;1662537;85;21225;-76
2021/01/08 04:18:42;;;;;;;15.45;5.28;;;;;;;3.64;100.00;99840.52;1664037;85;21220;-66
2021/01/08 04:21:10;;;;;;;12.00;5.08;;;;;;;3.61;100.00;99841.61;1661968;85;21224;-66
2021/01/08 04:23:39;;;;;;;4.58;2.20;;;;;;;3.59;100.00;99843.51;1664545;85;21213;-67
2021/01/08 04:26:07;;;;;;;3.27;1.20;;;;;;;3.58;100.00;99843.19;1663938;85;21097;-73
2021/01/08 04:28:36;;;;;;;2.30;0.80;;;;;;;3.56;100.00;99840.41;1661310;85;21116;-66
2021/01/08 04:31:04;;;;;;;2.08;0.90;;;;;;;3.53;100.00;99854.91;1659487;84;21681;-67
2021/01/08 04:33:34;;;;;;;2.90;1.20;;;;;;;3.51;100.00;99857.61;1665235;85;21579;-67
2021/01/08 04:36:03;;;;;;;2.27;1.25;;;;;;;3.50;100.00;99874.05;1662507;85;21180;-66
2021/01/08 04:38:32;;;;;;;2.75;1.10;;;;;;;3.49;100.00;99869.85;1662705;85;21039;-78
2021/01/08 04:41:00;;;;;;;2.45;1.10;;;;;;;3.47;100.00;99870.46;1662115;85;21419;-66
2021/01/08 04:43:29;;;;;;;2.58;1.05;;;;;;;3.47;100.00;99877.39;1631286;85;21165;-66
2021/01/08 04:46:11;;;;;;;1.65;0.85;;;;;;;3.44;100.00;99887.50;1662183;85;21296;-66
2021/01/08 04:48:40;;;;;;;2.42;1.10;;;;;;;3.44;100.00;99891.36;1662369;85;21885;-67
2021/01/08 04:51:08;;;;;;;2.98;1.20;;;;;;;3.43;100.00;99887.17;1631607;86;21058;-67
2021/01/08 04:53:37;;;;;;;3.75;1.52;;;;;;;3.41;100.00;99892.48;1631289;85;21098;-66
2021/01/08 04:56:08;;;;;;;4.55;2.00;;;;;;;3.40;100.00;99887.45;1661030;85;21079;-66
2021/01/08 04:58:36;;;;;;;8.08;3.22;;;;;;;3.40;100.00;99889.55;1664258;85;21565;-66
2021/01/08 05:01:05;;;;;;;4.70;1.85;;;;;;;3.39;100.00;99887.14;1661992;85;22023;-66
2021/01/08 05:03:34;;;;;;;5.37;2.05;;;;;;;3.37;100.00;99891.61;1660345;85;21166;-66
2021/01/08 05:06:03;;;;;;;7.87;2.85;;;;;;;3.36;100.00;99893.86;1663923;85;21156;-69
2021/01/08 05:08:31;;;;;;;4.37;1.70;;;;;;;3.36;100.00;99896.44;1664472;85;21232;-68
2021/01/08 05:11:23;;;;;;;7.47;2.62;;;;;;;3.35;100.00;99896.11;1661239;85;21231;-68
2021/01/08 05:13:59;;;;;;;9.20;3.10;;;;;;;3.34;100.00;99894.50;1660260;85;21172;-69
2021/01/08 05:16:28;;;;;;;9.33;3.40;;;;;;;3.35;100.00;99897.40;1665195;85;21156;-68
2021/01/08 05:18:59;;;;;;;3.42;1.80;;;;;;;3.34;100.00;99895.79;1662553;85;21172;-69
2021/01/08 05:21:28;;;;;;;4.12;1.95;;;;;;;3.33;100.00;99897.56;1662549;85;21085;-80
2021/01/08 05:24:01;;;;;;;6.05;2.30;;;;;;;3.33;100.00;99911.73;1663962;85;21452;-69
2021/01/08 05:26:30;;;;;;;7.60;3.00;;;;;;;3.34;100.00;99917.69;1663448;84;21177;-69
2021/01/08 05:29:01;;;;;;;4.60;2.20;;;;;;;3.33;100.00;99916.87;1660679;85;21583;-68
2021/01/08 05:31:32;;;;;;;4.35;2.50;;;;;;;3.33;100.00;99928.47;1661517;85;21578;-68
2021/01/08 05:34:01;;;;;;;24.07;9.50;;;;;;;3.33;100.00;99927.19;1661377;85;21129;-70
2021/01/08 05:36:30;;;;;;;11.90;6.35;;;;;;;3.33;100.00;99934.08;1663662;85;21402;-69
2021/01/08 05:39:00;;;;;;;10.60;5.78;;;;;;;3.32;100.00;99941.48;1659210;85;21223;-77
2021/01/08 05:41:29;;;;;;;8.60;4.62;;;;;;;3.31;100.00;99932.94;1661938;85;21177;-68
2021/01/08 05:43:58;;;;;;;4.80;2.92;;;;;;;3.32;100.00;99940.19;1659343;84;21685;-70
2021/01/08 05:46:32;;;;;;;4.10;2.37;;;;;;;3.32;100.00;99945.34;1661438;85;21087;-69
2021/01/08 05:49:03;;;;;;;3.83;2.47;;;;;;;3.31;100.00;99943.73;1660969;85;22221;-72
2021/01/08 05:51:32;;;;;;;4.15;2.50;;;;;;;3.32;100.00;99961.61;1664156;85;21944;-68
2021/01/08 05:54:01;;;;;;;4.25;2.45;;;;;;;3.33;100.00;99968.41;1658939;85;21042;-70
2021/01/08 05:56:34;;;;;;;3.60;2.12;;;;;;;3.34;100.00;99966.63;1661469;85;21221;-73
2021/01/08 05:59:09;;;;;;;5.83;2.83;;;;;;;3.35;100.00;99973.40;1659718;85;21531;-69
2021/01/08 06:01:39;;;;;;;5.87;3.20;;;;;;;3.36;100.00;99977.59;1658127;84;21199;-68
2021/01/08 06:04:09;;;;;;;4.45;2.70;;;;;;;3.37;100.00;99980.49;1608431;86;21063;-69
2021/01/08 06:06:41;;;;;;;4.97;3.08;;;;;;;3.37;100.00;99980.49;1647386;85;21134;-69
2021/01/08 06:09:15;;;;;;;4.80;3.20;;;;;;;3.39;100.00;99981.98;1645758;85;21554;-69
2021/01/08 06:11:45;;;;;;;5.62;3.98;;;;;;;3.39;100.00;99988.91;1645193;85;21087;-68
2021/01/08 06:14:15;;;;;;;5.85;3.15;;;;;;;3.38;100.00;99992.44;1642010;85;21225;-68
2021/01/08 06:16:45;;;;;;;6.03;3.90;;;;;;;3.38;100.00;99996.30;1605226;85;21494;-69
2021/01/08 06:19:14;;;;;;;6.08;4.80;;;;;;;3.38;100.00;100001.45;1640860;85;21522;-69
2021/01/08 06:21:45;;;;;;;6.08;4.75;;;;;;;3.38;100.00;100000.98;1651001;85;21138;-69
2021/01/08 06:24:23;;;;;;;6.40;5.08;;;;;;;3.40;100.00;100007.27;1642148;85;21103;-69
2021/01/08 06:26:52;;;;;;;7.62;5.50;;;;;;;3.41;100.00;100014.88;1641698;85;21402;-69
2021/01/08 06:29:26;;;;;;;6.58;5.45;;;;;;;3.42;100.00;100013.10;1644260;85;21631;-69
2021/01/08 06:31:57;;;;;;;6.10;4.70;;;;;;;3.41;100.00;100020.50;1646472;85;21024;-71
2021/01/08 06:34:28;;;;;;;4.85;4.05;;;;;;;3.40;100.00;100026.11;1644234;85;21497;-70
2021/01/08 06:37:08;;;;;;;6.08;5.00;;;;;;;3.40;100.00;100033.84;1641324;85;21134;-69
2021/01/08 06:42:31;;;;;;;6.63;4.30;;;;;;;3.41;100.00;100033.39;1826142;77;23384;-68
2021/01/08 06:44:59;;;;;;;5.62;3.95;;;;;;;3.37;100.00;100039.75;1800460;79;20927;-70
2021/01/08 06:47:28;;;;;;;4.75;3.60;;;;;;;3.37;100.00;100047.48;1796090;79;21209;-80
2021/01/08 06:49:58;;;;;;;5.15;3.00;;;;;;;3.36;100.00;100048.44;1798079;79;21355;-70
2021/01/08 06:52:27;;;;;;;5.97;3.95;;;;;;;3.36;100.00;100054.40;1799193;78;20887;-70
2021/01/08 06:54:55;;;;;;;4.17;2.52;;;;;;;3.37;100.00;100062.94;1791223;79;21594;-70
2021/01/08 06:57:23;;;;;;;5.33;2.62;;;;;;;3.38;100.00;100071.02;1792158;78;20967;-72
2021/01/08 06:59:59;;;;;;;3.72;2.50;;;;;;;3.39;100.00;100075.22;1791215;79;21387;-68
2021/01/08 07:02:27;;;;;;;5.25;2.90;;;;;;;3.41;100.00;100087.50;1734878;80;21097;-75
2021/01/08 07:05:00;;;;;;;3.77;2.25;;;;;;;3.42;100.00;100089.11;1765274;80;20947;-73
2021/01/08 07:07:28;;;;;;;4.47;2.65;;;;;;;3.45;100.00;100090.12;1760951;80;21174;-70
2021/01/08 07:09:57;;;;;;;4.00;2.52;;;;;;;3.45;100.00;100081.11;1758305;80;21472;-69
2021/01/08 07:12:26;;;;;;;6.60;3.25;;;;;;;3.46;100.00;100080.14;1700145;81;21232;-70
2021/01/08 07:14:54;;;;;;;5.20;2.60;;;;;;;3.46;100.00;100089.16;1729758;81;21141;-70
2021/01/08 07:17:33;;;;;;;6.15;3.20;;;;;;;3.48;100.00;100091.58;1734313;81;21429;-70
2021/01/08 07:20:04;;;;;;;6.12;3.58;;;;;;;3.48;100.00;100095.45;1767620;80;21563;-70
2021/01/08 07:22:40;;;;;;;4.17;2.77;;;;;;;3.48;100.00;100098.03;1767097;80;21018;-76
2021/01/08 07:25:13;;;;;;;4.30;2.98;;;;;;;3.47;100.00;100103.66;1768667;80;21487;-68
2021/01/08 07:27:45;;;;;;;4.03;2.77;;;;;;;3.45;100.00;100100.43;1723928;82;21054;-72
2021/01/08 07:30:15;;;;;;;4.30;3.02;;;;;;;3.45;100.00;100105.59;1759705;80;21564;-73
2021/01/08 07:32:45;;;;;;;6.58;4.00;;;;;;;3.44;100.00;100101.36;1761695;80;22579;-67
2021/01/08 07:35:29;;;;;;;4.37;2.95;;;;;;;3.41;100.00;100096.03;1732628;82;21577;-67
2021/01/08 07:38:15;;;;;;;4.05;2.50;;;;;;;3.41;100.00;100099.90;1731746;81;21512;-71
2021/01/08 07:43:38;;;;;;;4.10;2.53;;;;;;;3.45;100.00;100097.02;1821541;77;23348;-67
2021/01/08 07:46:08;;;;;;;3.95;2.25;;;;;;;3.42;100.00;100100.70;1799469;79;21025;-76
2021/01/08 07:51:46;;;;;;;4.83;2.58;;;;;;;3.45;100.00;100095.73;1665890;84;21156;-73
2021/01/08 07:54:16;;;;;;;7.97;2.62;;;;;;;3.50;100.00;100103.39;1669574;84;21085;-72
2021/01/08 07:57:06;;;;;;;4.92;2.60;;;;;;;3.54;100.00;100108.59;1668160;84;20994;-78
2021/01/08 07:59:34;;;;;;;4.20;2.50;;;;;;;3.57;100.00;100109.61;1668780;84;20971;-70
2021/01/08 08:02:03;;;;;;;4.05;2.37;;;;;;;3.60;100.00;100109.33;1669412;84;21287;-71
2021/01/08 08:04:31;;;;;;;4.80;2.72;;;;;;;3.62;100.00;100109.17;1668537;84;21023;-72
2021/01/08 08:07:00;;;;;;;3.70;2.62;;;;;;;3.65;100.00;100117.44;1668846;84;21053;-71
2021/01/08 08:09:28;;;;;;;4.80;3.12;;;;;;;3.69;100.00;100121.83;1670212;84;21172;-73
2021/01/08 08:11:56;;;;;;;6.05;2.90;;;;;;;3.73;100.00;100123.17;1641601;85;21132;-72
2021/01/08 08:14:24;;;;;;;4.40;2.65;;;;;;;3.80;100.00;100122.14;1645291;85;21394;-72
2021/01/08 08:16:52;;;;;;;5.05;3.12;;;;;;;3.89;100.00;100120.78;1648456;85;21274;-70
2021/01/08 08:19:21;;;;;;;5.05;3.50;;;;;;;4.01;100.00;100119.30;1667654;84;21164;-71
2021/01/08 08:21:50;;;;;;;5.17;3.30;;;;;;;4.13;100.00;100117.69;1671490;84;21124;-69
2021/01/08 08:24:18;;;;;;;4.30;3.22;;;;;;;4.23;100.00;100117.63;1669583;84;20974;-71
2021/01/08 08:26:48;;;;;;;5.37;3.55;;;;;;;4.48;100.00;100116.59;1671618;84;21500;-69
2021/01/08 08:29:18;;;;;;;6.70;2.98;;;;;;;4.78;100.00;100117.99;1665781;84;21104;-71
2021/01/08 08:31:50;;;;;;;4.70;3.15;;;;;;;5.02;100.00;100113.00;1668899;84;21089;-72
2021/01/08 08:34:32;;;;;;;4.75;3.25;;;;;;;5.24;100.00;100112.19;1671492;84;21551;-70
2021/01/08 08:37:08;;;;;;;4.60;3.20;;;;;;;5.63;100.00;100111.27;1670887;84;21147;-70
2021/01/08 08:39:36;;;;;;;4.87;2.93;;;;;;;6.20;100.00;100110.70;1672397;84;21230;-73
2021/01/08 08:42:05;;;;;;;3.93;2.50;;;;;;;6.72;100.00;100106.58;1672028;84;21143;-74
2021/01/08 08:47:21;;;;;;;6.70;3.83;;;;;;;7.17;100.00;100094.89;1821505;77;22623;-72
2021/01/08 08:49:52;;;;;;;5.03;3.10;;;;;;;7.09;100.00;100103.97;1795650;79;20998;-77
2021/01/08 08:55:30;;;;;;;4.17;2.97;;;;;;;6.69;100.00;100103.81;1811895;78;23297;-73
2021/01/08 08:58:10;;;;;;;5.80;3.53;;;;;;;6.34;100.00;100108.80;1781789;79;22147;-72
2021/01/08 09:00:39;;;;;;;3.77;2.60;;;;;;;6.02;100.00;100119.85;1746328;79;21194;-75
2021/01/08 09:03:22;;;;;;;3.33;2.10;;;;;;;5.79;100.00;100119.58;1786390;79;21415;-80
2021/01/08 09:05:51;;;;;;;4.27;2.67;;;;;;;5.61;100.00;100124.36;1791217;79;21111;-74
2021/01/08 09:08:24;;;;;;;4.10;2.90;;;;;;;5.40;100.00;100121.33;1784081;79;21338;-74
2021/01/08 09:11:05;;;;;;;6.30;3.53;;;;;;;5.19;100.00;100122.15;1783161;79;21112;-78
2021/01/08 09:14:06;;;;;;;4.45;3.22;;;;;;;5.03;100.00;100136.57;1787128;79;21427;-78
2021/01/08 09:16:49;;;;;;;5.77;3.70;;;;;;;4.93;100.00;100139.75;1775526;77;21025;-76
2021/01/08 09:19:22;;;;;;;5.85;3.72;;;;;;;4.84;100.00;100134.16;1779286;79;21322;-78
2021/01/08 09:21:51;;;;;;;6.67;3.90;;;;;;;4.71;100.00;100141.48;1783239;79;20959;-72
2021/01/08 09:24:30;;;;;;;6.22;3.58;;;;;;;4.54;100.00;100144.38;1784127;79;22744;-75
2021/01/08 09:27:04;;;;;;;7.08;3.98;;;;;;;4.41;100.00;100134.42;1785182;79;21350;-77
2021/01/08 09:29:34;;;;;;;5.42;3.52;;;;;;;4.31;100.00;100138.83;1777230;79;21507;-75
2021/01/08 09:32:04;;;;;;;9.28;4.37;;;;;;;4.22;100.00;100133.26;1786783;79;20931;-80
2021/01/08 09:34:34;;;;;;;6.75;4.58;;;;;;;4.20;100.00;100133.86;1786468;79;21581;-78
2021/01/08 09:37:14;;;;;;;8.98;5.25;;;;;;;4.22;100.00;100135.84;1778559;79;21180;-78
2021/01/08 09:39:44;;;;;;;7.72;4.90;;;;;;;4.21;100.00;100135.52;1781611;79;21434;-78
2021/01/08 09:42:12;;;;;;;7.40;4.87;;;;;;;4.19;100.00;100124.51;1716907;82;22629;-78
2021/01/08 09:44:41;;;;;;;7.40;4.90;;;;;;;4.12;100.00;100139.27;1736036;81;21576;-78
2021/01/08 09:47:12;;;;;;;8.18;5.15;;;;;;;4.05;100.00;100143.85;1729840;81;21592;-77
2021/01/08 09:52:34;;;;;;;6.53;4.27;;;;;;;4.06;100.00;100137.77;1822488;75;23364;-78
2021/01/08 09:55:05;;;;;;;5.20;3.77;;;;;;;4.03;100.00;100142.72;1789803;78;21420;-79
2021/01/08 09:57:35;;;;;;;5.62;3.55;;;;;;;4.05;100.00;100142.11;1814232;76;21350;-79
2021/01/08 10:00:08;;;;;;;5.42;3.12;;;;;;;4.10;100.00;100141.67;1813130;78;21068;-79
2021/01/08 10:02:43;;;;;;;5.62;3.47;;;;;;;4.15;100.00;100148.49;1817979;76;20958;-79
2021/01/08 10:05:25;;;;;;;7.65;4.35;;;;;;;4.18;100.00;100146.11;1813549;76;20946;-78
2021/01/08 10:08:20;;;;;;;6.13;3.10;;;;;;;4.22;100.00;100143.58;1816626;77;23425;-76
2021/01/08 10:10:48;;;;;;;4.97;3.02;;;;;;;4.16;100.00;100138.50;1803106;79;21003;-76
2021/01/08 10:13:20;;;;;;;6.65;3.62;;;;;;;4.11;100.00;100140.71;1738186;80;22539;-76
2021/01/08 10:15:51;;;;;;;4.90;3.20;;;;;;;4.09;100.00;100151.19;1738002;81;21007;-76
2021/01/08 10:18:35;;;;;;;4.42;2.75;;;;;;;4.11;100.00;100139.42;1771492;80;21488;-75
2021/01/08 10:23:53;;;;;;;5.37;3.07;;;;;;;4.08;100.00;100128.09;1824835;77;24049;-76
2021/01/08 10:26:22;;;;;;;5.45;3.72;;;;;;;4.01;100.00;100139.94;1796589;79;21364;-79
2021/01/08 10:28:55;;;;;;;4.85;3.08;;;;;;;3.98;100.00;100137.64;1734474;80;21365;-80
2021/01/08 10:31:24;;;;;;;4.70;3.22;;;;;;;3.97;100.00;100137.31;1723954;82;21153;-79
2021/01/08 10:33:52;;;;;;;4.55;3.52;;;;;;;3.93;100.00;100145.81;1742183;80;21090;-76
2021/01/08 10:36:21;;;;;;;5.60;3.52;;;;;;;3.89;100.00;100139.31;1734932;81;20998;-77
2021/01/08 10:38:49;;;;;;;4.92;3.35;;;;;;;3.89;100.00;100131.09;1768672;80;21003;-78
2021/01/08 10:41:18;;;;;;;4.65;3.30;;;;;;;3.88;100.00;100132.06;1759594;80;21417;-78
2021/01/08 10:43:46;;;;;;;6.45;4.10;;;;;;;3.86;100.00;100130.57;1724074;81;21051;-79
2021/01/08 10:46:15;;;;;;;6.85;4.28;;;;;;;3.85;100.00;100126.38;1734127;81;21007;-80
2021/01/08 10:48:44;;;;;;;5.10;3.67;;;;;;;3.82;100.00;100122.79;1732811;81;21152;-79
2021/01/08 10:51:12;;;;;;;5.50;3.90;;;;;;;3.77;100.00;100135.30;1726171;81;21388;-79
2021/01/08 10:53:40;;;;;;;5.70;4.28;;;;;;;3.69;100.00;100127.47;1734458;81;21269;-79
2021/01/08 10:56:09;;;;;;;4.62;3.33;;;;;;;3.57;100.00;100130.22;1733569;81;20950;-81
2021/01/08 10:58:37;;;;;;;5.97;4.05;;;;;;;3.45;100.00;100122.78;1727625;81;20985;-80
2021/01/08 11:01:05;;;;;;;7.15;4.03;;;;;;;3.39;100.00;100122.41;1733715;81;21615;-81
2021/01/08 11:03:34;;;;;;;5.83;4.17;;;;;;;3.44;100.00;100114.25;1725012;81;21541;-79
2021/01/08 11:06:02;;;;;;;5.40;3.55;;;;;;;3.57;100.00;100125.06;1732544;81;21589;-80
2021/01/08 11:08:30;;;;;;;5.92;3.83;;;;;;;3.70;100.00;100120.88;1728495;81;21052;-81
2021/01/08 11:10:59;;;;;;;6.83;4.40;;;;;;;3.83;100.00;100118.80;1755085;80;21212;-79
2021/01/08 11:13:27;;;;;;;6.95;4.58;;;;;;;3.97;100.00;100120.06;1755508;80;20943;-80
2021/01/08 11:15:55;;;;;;;5.60;3.92;;;;;;;4.10;100.00;100116.69;1757298;80;20983;-80
2021/01/08 11:18:24;;;;;;;6.87;4.60;;;;;;;4.22;100.00;100114.72;1731718;81;21784;-81
2021/01/08 11:20:52;;;;;;;5.62;3.98;;;;;;;4.31;100.00;100113.83;1770769;80;21145;-80
2021/01/08 11:23:22;;;;;;;6.65;4.37;;;;;;;4.42;100.00;100110.23;1757491;80;21491;-80
2021/01/08 11:25:50;;;;;;;4.80;3.50;;;;;;;4.60;100.00;100110.24;1752408;80;21528;-81
2021/01/08 11:28:19;;;;;;;5.92;3.65;;;;;;;4.80;100.00;100103.95;1712813;82;21145;-81
2021/01/08 11:30:49;;;;;;;7.10;4.30;;;;;;;4.99;100.00;100109.91;1785743;79;21686;-78
2021/01/08 11:33:17;;;;;;;5.45;3.60;;;;;;;5.09;100.00;100106.76;1780279;79;21007;-79
2021/01/08 11:35:46;;;;;;;5.42;3.83;;;;;;;5.18;100.00;100106.33;1793428;79;21584;-79
2021/01/08 11:38:15;;;;;;;6.47;4.25;;;;;;;5.23;100.00;100115.75;1730069;80;21501;-81
2021/01/08 11:40:43;;;;;;;5.37;3.95;;;;;;;5.31;100.00;100114.50;1729241;82;21157;-81
2021/01/08 11:43:11;;;;;;;5.35;3.90;;;;;;;5.47;100.00;100113.78;1721804;81;21005;-81
2021/01/08 11:45:39;;;;;;;5.90;4.17;;;;;;;5.68;100.00;100110.80;1787504;79;20943;-80
2021/01/08 11:48:09;;;;;;;5.12;3.47;;;;;;;5.88;100.00;100114.78;1781575;79;21010;-80
2021/01/08 11:50:37;;;;;;;5.70;3.73;;;;;;;6.02;100.00;100110.34;1778140;79;20960;-79
2021/01/08 11:53:05;;;;;;;6.37;4.50;;;;;;;6.12;100.00;100110.68;1735033;82;21376;-78
2021/01/08 11:55:34;;;;;;;6.83;4.33;;;;;;;6.18;100.00;100116.05;1757696;81;21233;-78
2021/01/08 11:58:02;;;;;;;6.27;4.47;;;;;;;6.34;100.00;100116.56;1743392;80;21900;-79
2021/01/08 12:00:30;;;;;;;6.70;3.90;;;;;;;6.49;100.00;100108.98;1745165;80;21305;-81
2021/01/08 12:02:58;;;;;;;5.77;4.03;;;;;;;6.63;100.00;100109.66;1752916;81;21856;-81
2021/01/08 12:05:26;;;;;;;5.87;3.93;;;;;;;6.63;100.00;100115.29;1754208;80;21848;-79
2021/01/08 12:07:54;;;;;;;6.67;4.83;;;;;;;6.52;100.00;100103.48;1758319;80;21263;-80
2021/01/08 12:10:23;;;;;;;5.80;4.40;;;;;;;6.30;100.00;100107.00;1759442;80;21264;-79
2021/01/08 12:12:52;;;;;;;7.90;5.27;;;;;;;6.02;100.00;100112.93;1719885;82;21243;-81
2021/01/08 12:15:20;;;;;;;7.80;5.20;;;;;;;5.77;100.00;100113.77;1780787;79;21287;-78
2021/01/08 12:17:49;;;;;;;7.17;5.40;;;;;;;5.54;100.00;100119.47;1775102;79;21252;-79
2021/01/08 12:20:17;;;;;;;7.12;4.92;;;;;;;5.30;100.00;100111.11;1787431;79;21762;-80
2021/01/08 12:22:46;;;;;;;8.75;5.80;;;;;;;5.09;100.00;100129.52;1789313;79;21137;-80
2021/01/08 12:25:14;;;;;;;9.57;6.97;;;;;;;4.93;100.00;100129.89;1798717;79;21127;-79
2021/01/08 12:27:43;;;;;;;19.77;14.33;;;;;;;4.78;100.00;100133.00;1733504;82;21552;-79
2021/01/08 12:30:13;;;;;;;12.07;7.70;;;;;;;4.67;100.00;100135.00;1720166;82;21147;-79
2021/01/08 12:32:42;;;;;;;35.35;21.12;;;;;;;4.54;100.00;100139.22;1754127;81;22285;-79
2021/01/08 12:35:10;;;;;;;13.30;9.35;;;;;;;4.42;100.00;100144.27;1757274;81;21496;-79
2021/01/08 12:37:38;;;;;;;12.70;7.50;;;;;;;4.29;100.00;100149.30;1725506;81;21579;-79
2021/01/08 12:40:08;;;;;;;9.90;6.97;;;;;;;4.18;100.00;100148.70;1728527;82;21205;-80
2021/01/08 12:42:37;;;;;;;7.35;5.12;;;;;;;4.09;100.00;100148.61;1729586;82;21141;-79
2021/01/08 12:45:06;;;;;;;8.88;6.15;;;;;;;4.04;100.00;100141.75;1707812;82;21192;-80
2021/01/08 12:47:35;;;;;;;30.40;21.45;;;;;;;3.99;100.00;100146.55;1788170;79;20987;-81
2021/01/08 12:50:04;;;;;;;52.73;34.67;;;;;;;3.92;100.00;100151.94;1786412;79;21046;-81
2021/01/08 12:52:32;;;;;;;38.78;28.87;;;;;;;3.87;100.00;100158.81;1782112;79;21611;-80
2021/01/08 12:55:01;;;;;;;28.32;22.73;;;;;;;3.79;100.00;100159.16;1742823;80;21518;-81
2021/01/08 12:57:29;;;;;;;12.78;9.98;;;;;;;3.69;100.00;100150.67;1758667;80;21624;-81
2021/01/08 12:59:57;;;;;;;10.00;7.10;;;;;;;3.58;100.00;100149.88;1749085;80;21082;-79
2021/01/08 13:02:25;;;;;;;9.40;6.60;;;;;;;3.48;100.00;100143.13;1748225;81;21028;-79
2021/01/08 13:04:54;;;;;;;15.65;11.73;;;;;;;3.38;100.00;100144.45;1753072;80;21128;-71
2021/01/08 13:07:22;;;;;;;16.37;11.85;;;;;;;3.31;100.00;100141.61;1782360;79;21039;-77
2021/01/08 13:09:50;;;;;;;17.92;13.15;;;;;;;3.25;100.00;100143.44;1792822;79;21638;-76
2021/01/08 13:12:19;;;;;;;10.45;6.87;;;;;;;3.20;100.00;100139.67;1788538;79;21472;-74
2021/01/08 13:14:47;;;;;;;10.05;6.72;;;;;;;3.15;100.00;100134.46;1785858;79;21066;-76
2021/01/08 13:17:15;;;;;;;8.98;6.92;;;;;;;3.10;100.00;100125.50;1731649;82;21161;-74
2021/01/08 13:19:44;;;;;;;9.53;5.80;;;;;;;3.02;100.00;100135.20;1712079;82;21195;-68
2021/01/08 13:22:13;;;;;;;8.93;5.85;;;;;;;2.92;100.00;100124.94;1723824;82;21663;-74
2021/01/08 13:24:42;;;;;;;8.70;6.78;;;;;;;2.81;100.00;100132.80;1749517;80;21157;-75
2021/01/08 13:27:10;;;;;;;12.75;10.82;;;;;;;2.71;100.00;100140.17;1746668;81;21047;-75
2021/01/08 13:29:40;;;;;;;11.18;8.63;;;;;;;2.58;100.00;100137.40;1754233;81;21058;-73
2021/01/08 13:32:08;;;;;;;10.05;6.37;;;;;;;2.50;100.00;100150.13;1725101;81;21049;-73
2021/01/08 13:34:37;;;;;;;8.13;6.15;;;;;;;2.45;100.00;100154.84;1723458;81;21388;-71
2021/01/08 13:37:06;;;;;;;10.55;7.25;;;;;;;2.40;100.00;100148.81;1721792;81;21023;-73
2021/01/08 13:39:34;;;;;;;12.50;8.30;;;;;;;2.36;100.00;100150.02;1726168;81;21241;-74
2021/01/08 13:42:10;;;;;;;10.70;6.87;;;;;;;2.31;100.00;100152.63;1723131;81;21207;-73
2021/01/08 13:44:40;;;;;;;12.33;8.40;;;;;;;2.28;100.00;100155.50;1726586;81;20993;-74
2021/01/08 13:47:09;;;;;;;12.82;8.48;;;;;;;2.25;100.00;100160.89;1720112;81;22528;-77
2021/01/08 13:49:37;;;;;;;15.32;11.95;;;;;;;2.20;100.00;100161.30;1724913;81;20978;-72
2021/01/08 13:52:08;;;;;;;16.67;12.18;;;;;;;2.16;100.00;100162.51;1721834;81;21183;-72
2021/01/08 13:54:36;;;;;;;13.25;10.58;;;;;;;2.12;100.00;100163.23;1721951;81;21152;-78
2021/01/08 13:57:06;;;;;;;16.62;10.58;;;;;;;2.06;100.00;100160.37;1721891;81;21174;-80
2021/01/08 13:59:34;;;;;;;17.77;10.90;;;;;;;2.01;100.00;100162.50;1701923;81;21377;-75
2021/01/08 14:02:03;;;;;;;15.93;9.43;;;;;;;1.94;100.00;100160.94;1727414;81;21222;-73
2021/01/08 14:04:31;;;;;;;14.40;8.78;;;;;;;1.91;100.00;100166.33;1720191;81;21224;-73
2021/01/08 14:06:59;;;;;;;16.32;11.03;;;;;;;1.88;100.00;100167.87;1716871;81;21260;-72
2021/01/08 14:09:27;;;;;;;65.08;44.40;;;;;;;1.83;100.00;100161.84;1719964;81;21799;-73
2021/01/08 14:11:59;;;;;;;27.50;20.52;;;;;;;1.79;100.00;100158.38;1720894;81;22098;-74
2021/01/08 14:14:27;;;;;;;58.25;51.55;;;;;;;1.75;100.00;100164.72;1759966;79;21027;-73
2021/01/08 14:16:55;;;;;;;38.48;30.10;;;;;;;1.70;100.00;100167.20;1768631;79;20998;-75
2021/01/08 14:19:23;;;;;;;27.27;19.60;;;;;;;1.66;100.00;100163.23;1765053;79;21014;-73
2021/01/08 14:21:51;;;;;;;21.52;16.07;;;;;;;1.64;100.00;100161.75;1773462;79;20988;-73
2021/01/08 14:24:20;;;;;;;70.32;49.30;;;;;;;1.62;100.00;100172.14;1778069;79;21337;-72
2021/01/08 14:26:49;;;;;;;38.83;28.17;;;;;;;1.58;100.00;100173.81;1788844;79;21066;-73
2021/01/08 14:29:17;;;;;;;53.13;33.60;;;;;;;1.57;100.00;100176.05;1764382;79;21110;-72
2021/01/08 14:31:49;;;;;;;78.62;45.92;;;;;;;1.55;100.00;100168.92;1792558;79;21662;-73
2021/01/08 14:34:17;;;;;;;68.75;45.20;;;;;;;1.51;100.00;100173.49;1782323;79;21184;-73
2021/01/08 14:36:50;;;;;;;47.90;33.02;;;;;;;1.49;100.00;100174.11;1789452;79;22392;-73
2021/01/08 14:39:19;;;;;;;26.87;19.42;;;;;;;1.48;100.00;100184.05;1788083;79;21196;-73
2021/01/08 14:41:54;;;;;;;43.50;32.50;;;;;;;1.46;100.00;100181.59;1739941;81;21125;-74
2021/01/08 14:44:22;;;;;;;32.23;28.90;;;;;;;1.47;100.00;100182.39;1738558;80;21780;-72
2021/01/08 14:46:50;;;;;;;19.15;16.52;;;;;;;1.47;100.00;100188.81;1722297;82;22223;-73
2021/01/08 14:49:18;;;;;;;21.10;16.12;;;;;;;1.47;100.00;100178.55;1713346;82;21795;-72
2021/01/08 14:51:47;;;;;;;20.35;18.12;;;;;;;1.45;100.00;100161.98;1722217;82;21220;-74
2021/01/08 14:54:15;;;;;;;20.35;17.00;;;;;;;1.44;100.00;100160.84;1714383;82;21564;-76
2021/01/08 14:56:45;;;;;;;20.12;13.88;;;;;;;1.41;100.00;100163.18;1751892;81;21177;-71
2021/01/08 14:59:18;;;;;;;29.32;22.22;;;;;;;1.39;100.00;100154.77;1734170;80;21121;-70
2021/01/08 15:01:48;;;;;;;24.43;18.67;;;;;;;1.37;100.00;100162.28;1746988;80;27112;-71
2021/01/08 15:04:17;;;;;;;255.92;107.05;;;;;;;1.35;100.00;100160.30;1740376;80;21564;-73
2021/01/08 15:06:46;;;;;;;136.03;65.87;;;;;;;1.35;100.00;100165.43;1741616;81;21135;-69
2021/01/08 15:09:16;;;;;;;61.92;32.80;;;;;;;1.35;100.00;100162.86;1791418;79;21169;-71
2021/01/08 15:11:46;;;;;;;32.95;22.37;;;;;;;1.37;100.00;100167.42;1781320;79;21185;-70
2021/01/08 15:14:15;;;;;;;29.27;22.05;;;;;;;1.40;100.00;100167.14;1789383;79;22306;-73
2021/01/08 15:16:44;;;;;;;33.13;24.15;;;;;;;1.45;100.00;100171.45;1788541;79;21018;-72
2021/01/08 15:19:12;;;;;;;37.08;24.35;;;;;;;1.50;100.00;100165.45;1779183;79;20968;-71
2021/01/08 15:21:43;;;;;;;36.65;26.37;;;;;;;1.55;100.00;100171.02;1793137;79;21131;-72
2021/01/08 15:24:11;;;;;;;44.05;36.00;;;;;;;1.59;100.00;100168.56;1784468;79;21116;-71
2021/01/08 15:26:39;;;;;;;36.90;28.80;;;;;;;1.60;100.00;100159.09;1784182;78;21367;-71
2021/01/08 15:29:09;;;;;;;145.90;72.82;;;;;;;1.62;100.00;100164.43;1777332;79;21081;-71
2021/01/08 15:31:38;;;;;;;33.83;22.87;;;;;;;1.62;100.00;100165.71;1790511;79;21218;-68
2021/01/08 15:34:07;;;;;;;24.47;19.20;;;;;;;1.63;100.00;100179.37;1777672;79;21125;-70
2021/01/08 15:36:36;;;;;;;23.20;18.55;;;;;;;1.62;100.00;100182.41;1788146;78;20975;-69
2021/01/08 15:39:06;;;;;;;23.77;19.52;;;;;;;1.63;100.00;100189.20;1728895;80;21213;-70
2021/01/08 15:41:35;;;;;;;18.15;15.30;;;;;;;1.63;100.00;100189.20;1751480;80;21188;-69
2021/01/08 15:44:04;;;;;;;17.77;13.13;;;;;;;1.62;100.00;100187.55;1751531;81;22335;-72
2021/01/08 15:46:33;;;;;;;17.85;14.07;;;;;;;1.64;100.00;100187.44;1732295;80;21205;-70
2021/01/08 15:49:02;;;;;;;17.70;13.38;;;;;;;1.64;100.00;100185.69;1732407;81;20943;-71
2021/01/08 15:51:30;;;;;;;16.23;12.10;;;;;;;1.65;100.00;100183.92;1731809;82;22147;-71
2021/01/08 15:53:59;;;;;;;18.37;14.03;;;;;;;1.65;100.00;100188.59;1734665;81;21086;-74
2021/01/08 15:56:28;;;;;;;21.77;16.82;;;;;;;1.64;100.00;100171.55;1730439;81;21074;-71